createdAt,value
2022-08-01T00:00:09.315Z,20.62
2022-08-01T00:02:39.270Z,20.50
2022-08-01T00:05:07.140Z,20.60
2022-08-01T00:07:36.790Z,20.56
2022-08-01T00:10:09.176Z,20.57
2022-08-01T00:12:36.012Z,20.62
2022-08-01T00:15:03.705Z,20.63
2022-08-01T00:17:30.375Z,20.62
2022-08-01T00:19:56.952Z,20.58
2022-08-01T00:22:23.671Z,20.64
2022-08-01T00:24:50.695Z,20.67
2022-08-01T00:27:17.322Z,20.73
2022-08-01T00:30:11.862Z,20.64
2022-08-01T00:32:33.698Z,20.70
2022-08-01T00:35:00.384Z,20.62
2022-08-01T00:37:27.102Z,20.56
2022-08-01T00:39:53.788Z,20.52
2022-08-01T00:42:20.424Z,20.46
2022-08-01T00:44:48.295Z,20.48
2022-08-01T00:47:15.068Z,20.47
2022-08-01T00:49:41.830Z,20.53
2022-08-01T00:52:09.461Z,20.59
2022-08-01T00:54:36.591Z,20.66
2022-08-01T00:57:04.558Z,20.40
2022-08-01T00:59:31.658Z,20.32
2022-08-01T01:01:58.981Z,20.34
2022-08-01T01:04:25.695Z,20.39
2022-08-01T01:07:27.813Z,20.37
2022-08-01T01:09:58.982Z,20.42
2022-08-01T01:12:38.284Z,20.48
2022-08-01T01:15:19.414Z,20.44
2022-08-01T01:17:51.876Z,20.42
2022-08-01T01:20:20.069Z,20.47
2022-08-01T01:23:14.721Z,20.36
2022-08-01T01:25:50.967Z,20.31
2022-08-01T01:29:02.086Z,20.31
2022-08-01T01:31:29.952Z,20.28
2022-08-01T01:33:58.219Z,20.19
2022-08-01T01:36:26.029Z,20.22
2022-08-01T01:38:53.502Z,20.27
2022-08-01T01:41:21.059Z,20.31
2022-08-01T01:43:48.189Z,20.28
2022-08-01T01:46:19.855Z,20.33
2022-08-01T01:48:47.672Z,20.35
2022-08-01T01:51:15.104Z,20.30
2022-08-01T01:53:42.430Z,20.35
2022-08-01T01:56:10.220Z,20.46
2022-08-01T01:58:38.183Z,20.36
2022-08-01T02:01:04.971Z,20.31
2022-08-01T02:03:42.877Z,20.22
2022-08-01T02:06:09.740Z,20.27
2022-08-01T02:08:37.319Z,20.35
2022-08-01T02:11:19.536Z,20.28
2022-08-01T02:14:02.390Z,20.30
2022-08-01T02:16:33.110Z,20.30
2022-08-01T02:19:00.954Z,20.30
2022-08-01T02:21:49.741Z,20.34
2022-08-01T02:24:30.577Z,20.33
2022-08-01T02:27:01.345Z,20.27
2022-08-01T02:29:39.162Z,20.41
2022-08-01T02:32:06.392Z,20.26
2022-08-01T02:34:34.285Z,20.24
2022-08-01T02:37:02.546Z,20.26
2022-08-01T02:39:30.248Z,20.40
2022-08-01T02:42:04.986Z,20.37
2022-08-01T02:44:34.679Z,20.37
2022-08-01T02:47:05.933Z,20.31
2022-08-01T02:49:35.419Z,20.42
2022-08-01T02:52:07.066Z,20.34
2022-08-01T02:54:34.584Z,20.28
2022-08-01T02:57:02.496Z,20.30
2022-08-01T02:59:32.883Z,20.30
2022-08-01T03:02:01.406Z,20.31
2022-08-01T03:04:30.434Z,20.31
2022-08-01T03:06:59.668Z,20.29
2022-08-01T03:09:28.002Z,20.29
2022-08-01T03:11:58.540Z,20.27
2022-08-01T03:14:25.855Z,20.21
2022-08-01T03:16:52.789Z,20.26
2022-08-01T03:19:21.384Z,20.12
2022-08-01T03:21:48.556Z,20.07
2022-08-01T03:24:15.647Z,20.14
2022-08-01T03:26:42.925Z,20.13
2022-08-01T03:29:18.614Z,20.19
2022-08-01T03:31:46.263Z,20.26
2022-08-01T03:34:13.087Z,20.28
2022-08-01T03:36:47.790Z,20.30
2022-08-01T03:39:17.963Z,20.28
2022-08-01T03:41:52.571Z,20.22
2022-08-01T03:44:27.107Z,20.23
2022-08-01T03:46:59.408Z,20.29
2022-08-01T03:49:30.990Z,20.18
2022-08-01T03:51:58.221Z,20.27
2022-08-01T03:54:26.571Z,20.21
2022-08-01T03:56:53.516Z,20.27
2022-08-01T03:59:20.551Z,20.16
2022-08-01T04:01:47.562Z,20.11
2022-08-01T04:04:14.554Z,20.03
2022-08-01T04:06:42.102Z,19.95
2022-08-01T04:09:13.460Z,20.06
2022-08-01T04:11:41.114Z,20.01
2022-08-01T04:14:09.190Z,19.99
2022-08-01T04:16:36.259Z,19.94
2022-08-01T04:19:03.197Z,19.94
2022-08-01T04:21:30.289Z,20.09
2022-08-01T04:24:00.042Z,19.95
2022-08-01T04:26:28.538Z,19.97
2022-08-01T04:28:56.273Z,19.98
2022-08-01T04:31:23.982Z,19.86
2022-08-01T04:33:52.181Z,19.91
2022-08-01T04:36:24.064Z,19.95
2022-08-01T04:38:54.096Z,19.93
2022-08-01T04:41:21.239Z,19.99
2022-08-01T04:43:47.887Z,19.94
2022-08-01T04:46:15.158Z,20.00
2022-08-01T04:48:42.289Z,20.05
2022-08-01T04:51:16.533Z,19.99
2022-08-01T04:53:44.602Z,20.08
2022-08-01T04:56:14.407Z,20.12
2022-08-01T04:58:42.289Z,20.12
2022-08-01T05:01:09.510Z,20.21
2022-08-01T05:03:39.000Z,20.16
2022-08-01T05:06:06.339Z,20.08
2022-08-01T05:08:32.969Z,20.13
2022-08-01T05:10:59.826Z,20.06
2022-08-01T05:13:26.921Z,20.10
2022-08-01T05:15:53.814Z,20.15
2022-08-01T05:18:26.207Z,20.24
2022-08-01T05:20:55.265Z,20.30
2022-08-01T05:23:34.135Z,20.30
2022-08-01T05:26:09.408Z,20.35
2022-08-01T05:28:36.547Z,20.32
2022-08-01T05:31:04.159Z,20.40
2022-08-01T05:33:30.897Z,20.46
2022-08-01T05:35:57.532Z,20.46
2022-08-01T05:38:24.149Z,20.45
2022-08-01T05:40:50.835Z,20.49
2022-08-01T05:43:17.564Z,20.58
2022-08-01T05:45:45.673Z,20.39
2022-08-01T05:48:12.552Z,20.34
2022-08-01T05:50:39.339Z,20.36
2022-08-01T05:53:06.047Z,20.34
2022-08-01T05:55:32.645Z,20.46
2022-08-01T05:57:59.226Z,20.34
2022-08-01T06:00:25.988Z,20.34
2022-08-01T06:02:52.744Z,20.50
2022-08-01T06:05:19.557Z,20.64
2022-08-01T06:07:46.193Z,20.63
2022-08-01T06:10:12.872Z,20.64
2022-08-01T06:12:39.615Z,20.60
2022-08-01T06:15:08.892Z,20.70
2022-08-01T06:17:35.620Z,20.64
2022-08-01T06:20:02.338Z,20.64
2022-08-01T06:22:29.004Z,20.67
2022-08-01T06:24:57.695Z,20.44
2022-08-01T06:27:26.033Z,20.30
2022-08-01T06:29:54.702Z,20.32
2022-08-01T06:32:27.390Z,20.16
2022-08-01T06:34:55.093Z,19.73
2022-08-01T06:37:22.674Z,20.01
2022-08-01T06:39:50.764Z,19.94
2022-08-01T06:42:18.737Z,19.88
2022-08-01T06:44:45.956Z,19.96
2022-08-01T06:47:12.688Z,20.15
2022-08-01T06:49:39.361Z,20.17
2022-08-01T06:52:06.301Z,19.97
2022-08-01T06:54:33.083Z,19.94
2022-08-01T06:56:59.681Z,19.87
2022-08-01T06:59:26.307Z,20.02
2022-08-01T07:01:52.948Z,20.04
2022-08-01T07:04:19.644Z,19.91
2022-08-01T07:06:46.307Z,20.10
2022-08-01T07:09:14.629Z,20.06
2022-08-01T07:11:42.008Z,20.17
2022-08-01T07:14:08.834Z,20.24
2022-08-01T07:16:35.786Z,20.30
2022-08-01T07:19:02.435Z,20.37
2022-08-01T07:21:38.655Z,20.59
2022-08-01T07:24:13.163Z,20.39
2022-08-01T07:26:53.335Z,20.44
2022-08-01T07:29:27.952Z,20.52
2022-08-01T07:31:56.561Z,20.58
2022-08-01T07:34:24.662Z,20.64
2022-08-01T07:36:51.857Z,20.63
2022-08-01T07:39:18.618Z,20.66
2022-08-01T07:42:06.342Z,20.78
2022-08-01T07:44:32.088Z,20.74
2022-08-01T07:46:58.785Z,20.84
2022-08-01T07:49:25.523Z,20.86
2022-08-01T07:52:03.657Z,20.88
2022-08-01T07:54:34.663Z,20.82
2022-08-01T07:57:02.456Z,20.89
2022-08-01T07:59:29.144Z,21.02
2022-08-01T08:01:55.987Z,21.12
2022-08-01T08:04:22.834Z,21.10
2022-08-01T08:06:50.277Z,20.96
2022-08-01T08:09:17.732Z,21.07
2022-08-01T08:11:47.832Z,21.09
2022-08-01T08:14:18.364Z,21.22
2022-08-01T08:16:45.377Z,21.29
2022-08-01T08:19:12.348Z,21.51
2022-08-01T08:21:39.493Z,21.63
2022-08-01T08:24:26.296Z,21.85
2022-08-01T08:26:58.765Z,22.21
2022-08-01T08:29:27.433Z,22.10
2022-08-01T08:31:56.917Z,21.97
2022-08-01T08:34:31.209Z,21.93
2022-08-01T08:36:59.293Z,21.95
2022-08-01T08:39:26.561Z,22.06
2022-08-01T08:41:53.449Z,22.00
2022-08-01T08:44:26.772Z,22.07
2022-08-01T08:46:53.789Z,21.95
2022-08-01T08:49:24.893Z,22.15
2022-08-01T08:51:52.955Z,22.28
2022-08-01T08:54:27.716Z,22.44
2022-08-01T08:56:58.842Z,22.57
2022-08-01T08:59:30.257Z,22.75
2022-08-01T09:01:58.381Z,22.59
2022-08-01T09:04:26.975Z,22.66
2022-08-01T09:06:55.126Z,22.59
2022-08-01T09:09:22.663Z,22.76
2022-08-01T09:11:57.379Z,22.72
2022-08-01T09:14:27.312Z,22.68
2022-08-01T09:17:07.901Z,22.66
2022-08-01T09:19:42.798Z,22.82
2022-08-01T09:22:11.851Z,22.95
2022-08-01T09:24:39.332Z,22.97
2022-08-01T09:27:24.969Z,23.03
2022-08-01T09:30:01.556Z,23.04
2022-08-01T09:32:34.729Z,23.17
2022-08-01T09:35:23.360Z,23.13
2022-08-01T09:37:50.303Z,23.16
2022-08-01T09:40:17.119Z,23.48
2022-08-01T09:42:44.032Z,23.35
2022-08-01T09:45:10.980Z,23.41
2022-08-01T09:47:50.069Z,23.55
2022-08-01T09:50:17.700Z,23.71
2022-08-01T09:52:54.717Z,23.77
2022-08-01T09:55:22.741Z,23.86
2022-08-01T09:58:01.946Z,24.11
2022-08-01T10:00:44.868Z,24.11
2022-08-01T10:03:30.224Z,24.10
2022-08-01T10:05:58.337Z,24.08
2022-08-01T10:08:28.538Z,24.38
2022-08-01T10:11:10.295Z,24.47
2022-08-01T10:13:39.805Z,24.56
2022-08-01T10:16:08.060Z,24.57
2022-08-01T10:18:36.252Z,24.74
2022-08-01T10:21:10.850Z,24.62
2022-08-01T10:23:39.765Z,24.77
2022-08-01T10:26:08.369Z,24.71
2022-08-01T10:28:38.696Z,24.77
2022-08-01T10:31:15.112Z,24.97
2022-08-01T10:33:51.288Z,24.90
2022-08-01T10:36:21.331Z,25.05
2022-08-01T10:38:49.556Z,25.26
2022-08-01T10:41:16.856Z,25.46
2022-08-01T10:43:45.632Z,25.36
2022-08-01T10:46:14.364Z,25.17
2022-08-01T10:49:02.535Z,25.00
2022-08-01T10:51:52.392Z,24.96
2022-08-01T10:54:16.971Z,25.22
2022-08-01T10:56:49.069Z,25.28
2022-08-01T10:59:29.061Z,25.52
2022-08-01T11:02:26.566Z,25.47
2022-08-01T11:05:04.434Z,25.47
2022-08-01T11:07:49.742Z,25.64
2022-08-01T11:10:39.729Z,25.74
2022-08-01T11:13:12.417Z,25.88
2022-08-01T11:15:50.328Z,25.99
2022-08-01T11:18:31.344Z,25.77
2022-08-01T11:21:56.995Z,25.44
2022-08-01T11:23:52.989Z,25.65
2022-08-01T11:26:28.732Z,25.90
2022-08-01T11:29:23.113Z,26.01
2022-08-01T11:31:50.252Z,26.17
2022-08-01T11:34:16.962Z,26.16
2022-08-01T11:36:59.924Z,26.42
2022-08-01T11:39:34.345Z,26.43
2022-08-01T11:42:20.825Z,26.14
2022-08-01T11:44:54.538Z,26.06
2022-08-01T11:47:44.499Z,26.13
2022-08-01T11:50:51.068Z,26.01
2022-08-01T11:53:19.907Z,25.94
2022-08-01T11:55:54.316Z,25.99
2022-08-01T11:58:27.513Z,25.97
2022-08-01T12:00:58.013Z,26.39
2022-08-01T12:03:33.626Z,26.70
2022-08-01T12:06:01.032Z,26.72
2022-08-01T12:08:37.555Z,26.85
2022-08-01T12:11:06.941Z,27.06
2022-08-01T12:13:44.479Z,27.22
2022-08-01T12:16:12.130Z,27.02
2022-08-01T12:18:42.714Z,27.00
2022-08-01T12:21:09.410Z,26.51
2022-08-01T12:23:36.117Z,26.63
2022-08-01T12:26:05.147Z,26.53
2022-08-01T12:28:40.408Z,26.44
2022-08-01T12:31:10.641Z,26.65
2022-08-01T12:33:39.471Z,26.70
2022-08-01T12:36:07.336Z,26.56
2022-08-01T12:38:35.166Z,26.72
2022-08-01T12:41:02.881Z,26.64
2022-08-01T12:43:32.630Z,26.37
2022-08-01T12:46:00.889Z,26.49
2022-08-01T12:48:28.383Z,26.51
2022-08-01T12:50:58.704Z,26.74
2022-08-01T12:53:26.990Z,27.03
2022-08-01T12:56:06.776Z,27.16
2022-08-01T12:58:34.718Z,27.27
2022-08-01T13:01:07.066Z,27.25
2022-08-01T13:03:33.716Z,27.25
2022-08-01T13:06:01.246Z,27.52
2022-08-01T13:08:35.664Z,27.76
2022-08-01T13:11:15.966Z,27.76
2022-08-01T13:13:48.518Z,27.76
2022-08-01T13:16:30.672Z,27.55
2022-08-01T13:19:03.607Z,27.36
2022-08-01T13:21:53.300Z,27.29
2022-08-01T13:24:28.104Z,27.16
2022-08-01T13:27:01.723Z,27.14
2022-08-01T13:29:39.051Z,27.32
2022-08-01T13:32:28.735Z,27.72
2022-08-01T13:35:09.133Z,27.84
2022-08-01T13:37:38.713Z,27.92
2022-08-01T13:40:09.526Z,27.73
2022-08-01T13:42:36.251Z,27.73
2022-08-01T13:45:14.720Z,27.57
2022-08-01T13:48:04.183Z,27.52
2022-08-01T13:50:29.422Z,27.52
2022-08-01T13:52:56.227Z,27.32
2022-08-01T13:55:22.779Z,27.13
2022-08-01T13:57:49.376Z,27.24
2022-08-01T14:00:16.625Z,27.36
2022-08-01T14:02:43.227Z,27.37
2022-08-01T14:05:09.892Z,27.46
2022-08-01T14:07:38.242Z,27.47
2022-08-01T14:10:19.756Z,27.31
2022-08-01T14:12:50.927Z,27.20
2022-08-01T14:15:38.631Z,27.10
2022-08-01T14:18:05.847Z,27.16
2022-08-01T14:20:33.437Z,27.26
2022-08-01T14:23:00.249Z,27.42
2022-08-01T14:26:01.651Z,27.52
2022-08-01T14:28:13.833Z,27.30
2022-08-01T14:30:42.374Z,27.23
2022-08-01T14:33:10.185Z,27.02
2022-08-01T14:36:01.782Z,26.51
2022-08-01T14:38:31.311Z,26.47
2022-08-01T14:40:58.632Z,26.49
2022-08-01T14:43:30.751Z,26.72
2022-08-01T14:46:00.097Z,26.63
2022-08-01T14:48:26.839Z,26.53
2022-08-01T14:50:53.510Z,26.17
2022-08-01T14:53:20.066Z,26.17
2022-08-01T14:55:46.686Z,26.28
2022-08-01T14:58:13.374Z,26.14
2022-08-01T15:00:40.152Z,26.00
2022-08-01T15:03:06.843Z,26.14
2022-08-01T15:05:34.034Z,26.11
2022-08-01T15:08:00.667Z,26.21
2022-08-01T15:10:28.004Z,26.23
2022-08-01T15:12:54.598Z,26.36
2022-08-01T15:15:21.233Z,26.44
2022-08-01T15:17:47.874Z,26.19
2022-08-01T15:20:14.477Z,26.05
2022-08-01T15:22:41.227Z,25.75
2022-08-01T15:25:08.231Z,25.87
2022-08-01T15:27:34.841Z,25.78
2022-08-01T15:30:01.470Z,26.12
2022-08-01T15:32:28.213Z,26.26
2022-08-01T15:34:55.400Z,26.05
2022-08-01T15:37:22.242Z,25.69
2022-08-01T15:39:49.248Z,25.76
2022-08-01T15:42:20.145Z,25.89
2022-08-01T15:44:52.322Z,25.54
2022-08-01T15:47:18.998Z,25.82
2022-08-01T15:49:45.903Z,25.76
2022-08-01T15:52:22.156Z,25.65
2022-08-01T15:54:49.947Z,25.75
2022-08-01T15:57:16.752Z,26.03
2022-08-01T15:59:43.505Z,25.87
2022-08-01T16:02:10.897Z,26.10
2022-08-01T16:04:39.122Z,26.16
2022-08-01T16:07:06.426Z,26.15
2022-08-01T16:09:33.404Z,26.16
2022-08-01T16:12:00.058Z,26.22
2022-08-01T16:14:26.677Z,26.27
2022-08-01T16:16:54.463Z,26.28
2022-08-01T16:19:21.111Z,26.13
2022-08-01T16:21:48.086Z,25.77
2022-08-01T16:24:14.904Z,25.70
2022-08-01T16:26:41.667Z,25.73
2022-08-01T16:29:08.281Z,25.85
2022-08-01T16:31:42.638Z,25.96
2022-08-01T16:34:23.573Z,26.03
2022-08-01T16:36:50.833Z,26.11
2022-08-01T16:39:22.761Z,25.82
2022-08-01T16:41:50.210Z,25.86
2022-08-01T16:44:29.069Z,25.94
2022-08-01T16:47:02.746Z,25.73
2022-08-01T16:49:29.485Z,25.56
2022-08-01T16:51:56.236Z,25.40
2022-08-01T16:54:30.514Z,25.41
2022-08-01T16:57:07.629Z,25.35
2022-08-01T16:59:41.598Z,25.01
2022-08-01T17:02:09.500Z,24.77
2022-08-01T17:04:36.147Z,24.78
2022-08-01T17:07:02.855Z,24.61
2022-08-01T17:09:29.862Z,24.71
2022-08-01T17:11:56.521Z,24.79
2022-08-01T17:14:27.987Z,24.57
2022-08-01T17:16:54.551Z,24.53
2022-08-01T17:19:26.773Z,24.52
2022-08-01T17:21:59.908Z,24.51
2022-08-01T17:24:26.509Z,24.58
2022-08-01T17:26:53.062Z,24.50
2022-08-01T17:29:19.653Z,24.37
2022-08-01T17:31:46.220Z,24.30
2022-08-01T17:34:12.867Z,24.37
2022-08-01T17:36:42.663Z,24.34
2022-08-01T17:39:09.568Z,24.21
2022-08-01T17:41:36.146Z,24.09
2022-08-01T17:44:02.824Z,23.86
2022-08-01T17:46:30.549Z,23.71
2022-08-01T17:48:57.267Z,23.68
2022-08-01T17:51:28.480Z,23.64
2022-08-01T17:53:57.334Z,23.54
2022-08-01T17:56:25.276Z,23.52
2022-08-01T17:58:52.426Z,23.38
2022-08-01T18:01:19.411Z,23.37
2022-08-01T18:03:46.800Z,23.13
2022-08-01T18:06:15.894Z,23.31
2022-08-01T18:08:43.264Z,23.19
2022-08-01T18:11:11.006Z,23.31
2022-08-01T18:13:40.452Z,23.20
2022-08-01T18:16:09.381Z,23.15
2022-08-01T18:18:36.500Z,23.08
2022-08-01T18:21:03.221Z,23.34
2022-08-01T18:23:29.844Z,23.31
2022-08-01T18:25:56.534Z,22.97
2022-08-01T18:28:32.815Z,22.92
2022-08-01T18:31:03.438Z,23.09
2022-08-01T18:33:30.080Z,23.02
2022-08-01T18:36:01.720Z,23.04
2022-08-01T18:38:32.865Z,23.06
2022-08-01T18:41:00.979Z,22.94
2022-08-01T18:43:27.918Z,22.87
2022-08-01T18:46:00.716Z,22.89
2022-08-01T18:48:27.291Z,22.99
2022-08-01T18:50:54.261Z,22.71
2022-08-01T18:53:25.309Z,22.80
2022-08-01T18:55:51.967Z,22.70
2022-08-01T18:58:18.829Z,22.68
2022-08-01T19:00:45.411Z,22.78
2022-08-01T19:03:13.735Z,22.83
2022-08-01T19:05:40.416Z,22.69
2022-08-01T19:08:08.236Z,22.43
2022-08-01T19:10:36.425Z,22.45
2022-08-01T19:13:03.132Z,22.37
2022-08-01T19:15:29.988Z,22.35
2022-08-01T19:17:56.742Z,22.62
2022-08-01T19:20:23.412Z,22.52
2022-08-01T19:22:50.040Z,22.55
2022-08-01T19:25:16.838Z,22.61
2022-08-01T19:27:48.776Z,22.61
2022-08-01T19:30:17.245Z,22.54
2022-08-01T19:32:45.148Z,22.42
2022-08-01T19:35:14.652Z,22.34
2022-08-01T19:37:52.598Z,22.20
2022-08-01T19:40:26.183Z,22.27
2022-08-01T19:42:55.551Z,22.22
2022-08-01T19:45:22.628Z,22.20
2022-08-01T19:47:56.554Z,22.19
2022-08-01T19:50:26.955Z,22.14
2022-08-01T19:53:00.463Z,22.09
2022-08-01T19:55:30.607Z,22.04
2022-08-01T19:58:25.389Z,22.13
2022-08-01T20:00:46.250Z,22.07
2022-08-01T20:03:15.247Z,22.03
2022-08-01T20:05:42.433Z,21.88
2022-08-01T20:08:09.492Z,21.76
2022-08-01T20:10:38.323Z,21.66
2022-08-01T20:13:05.559Z,21.50
2022-08-01T20:15:32.167Z,21.44
2022-08-01T20:17:59.238Z,21.56
2022-08-01T20:20:26.794Z,21.43
2022-08-01T20:22:57.956Z,21.36
2022-08-01T20:25:33.622Z,21.49
2022-08-01T20:28:09.406Z,21.53
2022-08-01T20:30:36.007Z,21.45
2022-08-01T20:33:03.301Z,21.27
2022-08-01T20:35:51.883Z,21.23
2022-08-01T20:38:17.566Z,21.32
2022-08-01T20:40:45.729Z,21.18
2022-08-01T20:43:12.525Z,21.26
2022-08-01T20:45:39.375Z,21.35
2022-08-01T20:48:06.451Z,21.31
2022-08-01T20:50:53.711Z,21.17
2022-08-01T20:53:23.862Z,21.11
2022-08-01T20:55:55.023Z,21.06
2022-08-01T20:58:55.291Z,20.89
2022-08-01T21:01:28.682Z,21.14
2022-08-01T21:04:27.775Z,21.12
2022-08-01T21:07:01.610Z,21.11
2022-08-01T21:09:39.394Z,21.14
2022-08-01T21:12:08.818Z,21.02
2022-08-01T21:14:47.500Z,21.10
2022-08-01T21:17:36.983Z,21.23
2022-08-01T21:20:07.155Z,21.10
2022-08-01T21:22:42.087Z,20.98
2022-08-01T21:25:11.240Z,20.96
2022-08-01T21:27:39.629Z,20.93
2022-08-01T21:30:09.875Z,20.87
2022-08-01T21:32:37.061Z,21.06
2022-08-01T21:35:05.916Z,20.69
2022-08-01T21:37:43.027Z,20.52
2022-08-01T21:40:10.622Z,20.53
2022-08-01T21:42:39.082Z,20.50
2022-08-01T21:45:06.852Z,20.56
2022-08-01T21:47:33.593Z,20.64
2022-08-01T21:50:02.447Z,20.59
2022-08-01T21:52:39.358Z,20.52
2022-08-01T21:55:15.471Z,20.54
2022-08-01T21:58:10.760Z,20.78
2022-08-01T22:00:37.420Z,20.74
2022-08-01T22:03:20.026Z,20.63
2022-08-01T22:05:50.805Z,20.59
2022-08-01T22:08:25.113Z,20.78
2022-08-01T22:10:58.335Z,20.80
2022-08-01T22:13:24.956Z,20.66
2022-08-01T22:15:54.645Z,20.57
2022-08-01T22:18:22.172Z,20.56
2022-08-01T22:20:49.518Z,20.52
2022-08-01T22:23:16.510Z,20.45
2022-08-01T22:25:43.654Z,20.40
2022-08-01T22:28:11.464Z,20.38
2022-08-01T22:30:42.163Z,20.50
2022-08-01T22:33:17.129Z,20.59
2022-08-01T22:35:46.462Z,20.46
2022-08-01T22:38:13.433Z,20.48
2022-08-01T22:40:54.462Z,20.55
2022-08-01T22:43:26.580Z,20.60
2022-08-01T22:46:31.021Z,20.72
2022-08-01T22:49:12.982Z,20.66
2022-08-01T22:51:43.261Z,20.56
2022-08-01T22:54:23.113Z,20.52
2022-08-01T22:56:56.646Z,20.52
2022-08-01T22:59:41.703Z,20.45
2022-08-01T23:02:10.663Z,20.31
2022-08-01T23:04:40.330Z,20.32
2022-08-01T23:07:07.261Z,20.48
2022-08-01T23:09:52.625Z,20.44
2022-08-01T23:12:24.478Z,20.32
2022-08-01T23:14:55.900Z,20.29
2022-08-01T23:17:29.095Z,20.22
2022-08-01T23:20:05.989Z,20.22
2022-08-01T23:22:35.477Z,20.14
2022-08-01T23:25:06.588Z,20.03
2022-08-01T23:27:52.068Z,20.06
2022-08-01T23:30:24.883Z,20.14
2022-08-01T23:32:51.511Z,20.19
2022-08-01T23:35:18.165Z,20.07
2022-08-01T23:37:44.813Z,19.96
2022-08-01T23:40:12.225Z,19.83
2022-08-01T23:42:38.873Z,19.65
2022-08-01T23:45:07.008Z,19.71
2022-08-01T23:47:33.735Z,19.80
2022-08-01T23:50:00.431Z,19.64
2022-08-01T23:52:32.283Z,19.66
2022-08-01T23:55:14.862Z,19.58
2022-08-01T23:57:42.201Z,19.65
